MMCL/CUL METAR and TAF weather

Enter ICAO airport designator
Station Type Date Time Source
MMCL METAR 2020/11/27 13:45 UTC NOAA

MMCL 271345Z 00000KT 10SM SCT070 SCT120 BKN230 23/14 A2994 RMK 8/071


Station Type Date Time Source
MMCL Decoded METAR 2020/11/27 13:45 UTC NOAA

Culiacan, Sin., Mexico (MMCL) 24-49N 107-24W
Nov 27, 2020 - 08:45 AM EST / 2020.11.27 1345 UTC
Wind: Calm:0
Visibility: 10 mile(s):0
Sky conditions: mostly cloudy
Temperature: 73 F (23 C)
Dew Point: 57 F (14 C)
Relative Humidity: 56%
Pressure (altimeter): 29.94 in. Hg (1013 hPa)
ob: MMCL 271345Z 00000KT 10SM SCT070 SCT120 BKN230 23/14 A2994 RMK 8/071
cycle: 14

Station Type Date Time Source
MMCL TAF 2020/11/27 06:39 UTC NOAA

TAF TAF MMCL 270418Z 2706/2806 33008KT P6SM BKN080
TEMPO 2706/2710 5SM RA
FM271500 24010KT P6SM BKN040 OVC080
FM272200 24010KT P6SM SCT030 BKN120
FM280200 24005KT P6SM SCT120 BKN250

Example: see airport list